YSH weather

Smiths Falls-Montague (Russ Beach) Airport
Smiths Falls, Ontario, Canada

Public forecast

Using degrees Celsius for public forecast. Weather courtesy of forecast.io.

Closest aviation weather report (METAR) to Smiths Falls-Montague (Russ Beach) Airport

Closest report is Ottawa Macdonald-Cartier International Airport, 25.4 nm (47.0 km) NNE. Retrieved 2020/06/06 13:00 UTC (1 hour ago):

CYOW 061300Z 29009KT 15SM FEW100 20/14 A2978 RMK AC1 AC TR SLP085 DENSITY ALT 1200FT

Closest aviation forecast (TAF) to Smiths Falls-Montague (Russ Beach) Airport

Closest forecast is Ottawa Macdonald-Cartier International Airport, 25.4 nm (47.0 km) NNE. Retrieved 2020/06/06 12:42 UTC (1 hour ago):

TAF CYOW 061138Z 0612/0712 25005KT P6SM FEW120 FM061500 32007KT P6SM BKN070 FM061800 32010G20KT P6SM -SHRA OVC050 PROB30 0620/0623 VRB15G25KT 2SM TSRA BR BKN020 OVC050CB FM062300 34010G20KT P6SM BKN050 FM070500 35010KT P6SM FEW050 RMK NXT FCST BY 061500Z